createdAt,value
2018-02-09T00:01:08.246Z,39.47
2018-02-09T00:03:35.877Z,38.17
2018-02-09T00:06:03.465Z,38.87
2018-02-09T00:08:31.070Z,37.80
2018-02-09T00:10:58.815Z,40.20
2018-02-09T00:13:27.188Z,38.30
2018-02-09T00:15:54.791Z,39.93
2018-02-09T00:18:22.379Z,36.87
2018-02-09T00:20:50.012Z,38.80
2018-02-09T00:23:17.533Z,38.67
2018-02-09T00:25:45.803Z,38.67
2018-02-09T00:28:13.403Z,39.77
2018-02-09T00:30:40.921Z,38.80
2018-02-09T00:33:09.194Z,38.43
2018-02-09T00:35:36.715Z,39.17
2018-02-09T00:38:04.224Z,38.73
2018-02-09T00:40:31.745Z,37.67
2018-02-09T00:42:59.257Z,38.30
2018-02-09T00:45:26.792Z,39.63
2018-02-09T00:47:54.462Z,38.47
2018-02-09T00:50:22.085Z,40.60
2018-02-09T00:52:49.702Z,38.90
2018-02-09T00:55:17.248Z,38.43
2018-02-09T00:57:44.739Z,37.90
2018-02-09T01:00:12.650Z,39.87
2018-02-09T01:02:40.243Z,40.83
2018-02-09T01:05:07.882Z,38.50
2018-02-09T01:07:35.415Z,39.50
2018-02-09T01:10:02.922Z,38.80
2018-02-09T01:12:30.414Z,37.83
2018-02-09T01:14:57.944Z,39.60
2018-02-09T01:17:25.487Z,40.80
2018-02-09T01:19:53.139Z,39.90
2018-02-09T01:22:21.422Z,40.30
2018-02-09T01:24:48.931Z,40.47
2018-02-09T01:27:16.431Z,39.70
2018-02-09T01:29:44.308Z,39.63
2018-02-09T01:32:11.826Z,40.57
2018-02-09T01:34:39.324Z,39.87
2018-02-09T01:37:06.863Z,39.37
2018-02-09T01:39:34.401Z,40.20
2018-02-09T01:42:01.906Z,40.20
2018-02-09T01:44:29.447Z,40.00
2018-02-09T01:46:56.958Z,40.67
2018-02-09T01:49:24.466Z,40.73
2018-02-09T01:51:52.753Z,41.93
2018-02-09T01:54:20.262Z,38.90
2018-02-09T01:56:47.809Z,40.60
2018-02-09T01:59:15.817Z,38.70
2018-02-09T02:01:43.324Z,39.23
2018-02-09T02:04:10.843Z,39.10
2018-02-09T02:06:38.413Z,38.83
2018-02-09T02:09:05.928Z,39.97
2018-02-09T02:11:34.194Z,40.47
2018-02-09T02:14:02.725Z,38.90
2018-02-09T02:16:30.225Z,40.53
2018-02-09T02:18:58.139Z,38.73
2018-02-09T02:21:26.523Z,41.23
2018-02-09T02:23:54.050Z,39.23
2018-02-09T02:26:21.545Z,38.53
2018-02-09T02:28:49.561Z,38.30
2018-02-09T02:31:17.064Z,39.73
2018-02-09T02:33:45.326Z,38.97
2018-02-09T02:36:13.926Z,38.80
2018-02-09T02:38:41.434Z,39.60
2018-02-09T02:41:08.941Z,41.13
2018-02-09T02:43:36.708Z,38.53
2018-02-09T02:46:04.365Z,41.53
2018-02-09T02:48:31.863Z,39.33
2018-02-09T02:50:59.389Z,37.97
2018-02-09T02:53:26.913Z,39.63
2018-02-09T02:55:54.425Z,39.60
2018-02-09T02:58:22.399Z,39.63
2018-02-09T03:00:49.905Z,39.03
2018-02-09T03:03:17.412Z,40.43
2018-02-09T03:05:44.936Z,38.80
2018-02-09T03:08:13.206Z,38.07
2018-02-09T03:10:40.716Z,39.60
2018-02-09T03:13:08.552Z,39.63
2018-02-09T03:15:36.085Z,36.53
2018-02-09T03:18:04.351Z,37.30
2018-02-09T03:20:32.682Z,37.63
2018-02-09T03:23:00.182Z,37.47
2018-02-09T03:25:27.737Z,37.70
2018-02-09T03:27:55.282Z,38.47
2018-02-09T03:30:22.854Z,38.53
2018-02-09T03:32:50.365Z,38.27
2018-02-09T03:35:18.223Z,39.03
2018-02-09T03:37:45.882Z,40.00
2018-02-09T03:40:13.386Z,38.00
2018-02-09T03:42:40.905Z,38.97
2018-02-09T03:45:08.408Z,37.67
2018-02-09T03:47:35.922Z,38.50
2018-02-09T03:50:03.437Z,39.40
2018-02-09T03:52:30.947Z,38.97
2018-02-09T03:54:58.462Z,37.33
2018-02-09T03:57:26.785Z,37.10
2018-02-09T03:59:54.295Z,39.13
2018-02-09T04:02:22.606Z,39.57
2018-02-09T04:04:50.163Z,37.60
2018-02-09T04:07:17.669Z,39.47
2018-02-09T04:09:45.166Z,38.63
2018-02-09T04:12:12.696Z,37.60
2018-02-09T04:14:40.186Z,39.43
2018-02-09T04:17:07.675Z,40.80
2018-02-09T04:19:35.516Z,39.30
2018-02-09T04:22:03.020Z,37.60
2018-02-09T04:24:30.518Z,40.23
2018-02-09T04:26:58.031Z,38.40
2018-02-09T04:29:25.523Z,37.93
2018-02-09T04:31:53.788Z,39.53
2018-02-09T04:34:21.769Z,38.67
2018-02-09T04:36:50.054Z,37.10
2018-02-09T04:39:17.563Z,38.73
2018-02-09T04:41:45.075Z,39.47
2018-02-09T04:44:12.565Z,41.20
2018-02-09T04:46:40.070Z,38.50
2018-02-09T04:49:07.611Z,41.33
2018-02-09T04:51:35.934Z,37.60
2018-02-09T04:54:03.431Z,39.37
2018-02-09T04:56:31.019Z,38.10
2018-02-09T04:58:59.291Z,38.60
2018-02-09T05:01:26.820Z,40.93
2018-02-09T05:03:54.549Z,40.67
2018-02-09T05:06:22.038Z,38.67
2018-02-09T05:08:49.544Z,39.30
2018-02-09T05:11:17.069Z,39.83
2018-02-09T05:13:44.667Z,38.90
2018-02-09T05:16:12.220Z,38.47
2018-02-09T05:18:39.992Z,38.63
2018-02-09T05:21:07.563Z,38.37
2018-02-09T05:23:35.138Z,39.03
2018-02-09T05:26:02.653Z,38.77
2018-02-09T05:28:30.927Z,39.50
2018-02-09T05:30:59.206Z,38.53
2018-02-09T05:33:26.789Z,37.77
2018-02-09T05:35:54.323Z,38.93
2018-02-09T05:38:22.582Z,38.53
2018-02-09T05:40:50.890Z,38.10
2018-02-09T05:43:18.395Z,39.20
2018-02-09T05:45:45.908Z,38.73
2018-02-09T05:48:13.494Z,39.30
2018-02-09T05:50:41.002Z,36.47
2018-02-09T05:53:09.275Z,40.07
2018-02-09T05:55:37.574Z,39.97
2018-02-09T05:58:05.146Z,37.27
2018-02-09T06:00:32.659Z,38.13
2018-02-09T06:03:00.568Z,38.73
2018-02-09T06:05:28.262Z,38.90
2018-02-09T06:07:55.971Z,38.87
2018-02-09T06:10:24.051Z,38.37
2018-02-09T06:12:51.553Z,38.17
2018-02-09T06:15:19.061Z,37.43
2018-02-09T06:17:46.603Z,39.50
2018-02-09T06:20:14.099Z,36.80
2018-02-09T06:22:41.591Z,39.33
2018-02-09T06:25:09.110Z,39.20
2018-02-09T06:27:36.658Z,39.60
2018-02-09T06:30:04.344Z,38.57
2018-02-09T06:32:32.143Z,38.83
2018-02-09T06:34:59.722Z,38.77
2018-02-09T06:37:27.404Z,38.60
2018-02-09T06:39:54.983Z,38.33
2018-02-09T06:42:22.551Z,40.20
2018-02-09T06:44:50.063Z,38.67
2018-02-09T06:47:17.941Z,38.97
2018-02-09T06:49:45.435Z,38.60
2018-02-09T06:52:12.956Z,40.77
2018-02-09T06:54:41.576Z,38.57
2018-02-09T06:57:09.195Z,37.63
2018-02-09T06:59:36.699Z,40.50
2018-02-09T07:02:04.528Z,38.83
2018-02-09T07:04:32.035Z,39.40
2018-02-09T07:06:59.564Z,39.47
2018-02-09T07:09:27.604Z,39.80
2018-02-09T07:11:55.150Z,37.73
2018-02-09T07:14:23.439Z,38.97
2018-02-09T07:16:52.037Z,39.40
2018-02-09T07:19:19.712Z,39.40
2018-02-09T07:21:47.246Z,38.43
2018-02-09T07:24:15.856Z,38.77
2018-02-09T07:26:43.509Z,39.23
2018-02-09T07:29:11.016Z,38.47
2018-02-09T07:31:38.937Z,36.67
2018-02-09T07:34:06.495Z,38.23
2018-02-09T07:36:34.014Z,39.00
2018-02-09T07:39:02.016Z,48.00
2018-02-09T07:41:29.529Z,40.90
2018-02-09T07:43:57.857Z,39.33
2018-02-09T07:46:25.815Z,37.07
2018-02-09T07:48:53.347Z,37.73
2018-02-09T07:51:20.953Z,38.47
2018-02-09T07:53:48.792Z,36.70
2018-02-09T07:56:16.296Z,38.03
2018-02-09T07:58:43.798Z,37.80
2018-02-09T08:01:12.400Z,36.37
2018-02-09T08:03:39.897Z,37.87
2018-02-09T08:06:07.394Z,38.90
2018-02-09T08:08:35.993Z,38.20
2018-02-09T08:11:03.529Z,38.13
2018-02-09T08:13:31.039Z,38.33
2018-02-09T08:15:58.988Z,40.03
2018-02-09T08:18:26.512Z,38.17
2018-02-09T08:20:54.934Z,37.43
2018-02-09T08:23:22.791Z,38.43
2018-02-09T08:25:50.440Z,38.43
2018-02-09T08:28:18.042Z,37.80
2018-02-09T08:30:45.879Z,38.27
2018-02-09T08:33:13.397Z,37.83
2018-02-09T08:35:40.904Z,37.57
2018-02-09T08:38:08.755Z,36.77
2018-02-09T08:40:36.417Z,38.57
2018-02-09T08:43:03.928Z,39.63
2018-02-09T08:45:31.702Z,37.93
2018-02-09T08:47:59.275Z,37.37
2018-02-09T08:50:27.550Z,38.37
2018-02-09T08:52:56.152Z,37.07
2018-02-09T08:55:23.671Z,38.33
2018-02-09T08:57:51.308Z,37.63
2018-02-09T09:00:19.161Z,39.83
2018-02-09T09:02:46.781Z,40.23
2018-02-09T09:05:15.056Z,39.23
2018-02-09T09:07:42.978Z,40.77
2018-02-09T09:10:10.499Z,38.13
2018-02-09T09:12:38.260Z,36.63
2018-02-09T09:15:06.142Z,36.43
2018-02-09T09:17:33.804Z,36.90
2018-02-09T09:20:01.304Z,36.07
2018-02-09T09:22:29.159Z,37.43
2018-02-09T09:24:56.662Z,36.00
2018-02-09T09:27:24.918Z,34.60
2018-02-09T09:29:52.710Z,31.93
2018-02-09T09:32:20.374Z,35.80
2018-02-09T09:34:47.894Z,35.87
2018-02-09T09:37:15.902Z,33.87
2018-02-09T09:39:43.555Z,31.87
2018-02-09T09:42:11.229Z,33.47
2018-02-09T09:44:39.100Z,34.00
2018-02-09T09:47:06.633Z,33.87
2018-02-09T09:49:34.313Z,30.13
2018-02-09T09:52:02.176Z,32.50
2018-02-09T09:54:29.744Z,30.73
2018-02-09T09:56:57.246Z,32.90
2018-02-09T09:59:25.162Z,32.83
2018-02-09T10:01:52.655Z,33.37
2018-02-09T10:04:20.154Z,32.63
2018-02-09T10:06:48.759Z,33.47
2018-02-09T10:09:16.276Z,32.93
2018-02-09T10:11:43.792Z,31.43
2018-02-09T10:14:11.362Z,32.40
2018-02-09T10:16:38.879Z,33.00
2018-02-09T10:19:07.467Z,31.60
2018-02-09T10:21:35.163Z,31.83
2018-02-09T10:24:02.811Z,32.83
2018-02-09T10:26:30.456Z,33.00
2018-02-09T10:28:57.966Z,32.93
2018-02-09T10:31:25.809Z,32.07
2018-02-09T10:33:53.324Z,32.80
2018-02-09T10:36:21.705Z,33.13
2018-02-09T10:38:49.585Z,33.10
2018-02-09T10:41:17.101Z,32.03
2018-02-09T10:43:44.635Z,31.60
2018-02-09T10:46:12.264Z,29.43
2018-02-09T10:48:39.836Z,27.20
2018-02-09T10:51:07.693Z,29.80
2018-02-09T10:53:35.202Z,29.00
2018-02-09T10:56:02.905Z,28.10
2018-02-09T10:58:31.239Z,28.50
2018-02-09T11:01:00.271Z,27.13
2018-02-09T11:03:27.836Z,27.17
2018-02-09T11:05:55.340Z,26.10
2018-02-09T11:08:22.866Z,26.33
2018-02-09T11:10:50.578Z,25.47
2018-02-09T11:13:18.099Z,25.53
2018-02-09T11:15:45.702Z,26.80
2018-02-09T11:18:13.486Z,24.33
2018-02-09T11:20:41.768Z,24.47
2018-02-09T11:23:09.266Z,26.43
2018-02-09T11:25:36.810Z,23.87
2018-02-09T11:28:04.363Z,24.37
2018-02-09T11:30:31.904Z,24.17
2018-02-09T11:32:59.795Z,21.57
2018-02-09T11:35:27.328Z,21.90
2018-02-09T11:37:55.076Z,21.13
2018-02-09T11:40:23.678Z,20.53
2018-02-09T11:42:51.216Z,21.43
2018-02-09T11:45:19.495Z,20.30
2018-02-09T11:47:48.099Z,19.40
2018-02-09T11:50:15.619Z,20.70
2018-02-09T11:52:43.150Z,19.13
2018-02-09T11:55:10.667Z,17.50
2018-02-09T11:57:38.314Z,17.70
2018-02-09T12:00:07.756Z,16.30
2018-02-09T12:02:35.371Z,17.00
2018-02-09T12:05:02.887Z,16.67
2018-02-09T12:07:30.403Z,15.47
2018-02-09T12:09:58.291Z,15.63
2018-02-09T12:12:25.906Z,13.73
2018-02-09T12:14:53.386Z,15.03
2018-02-09T12:17:21.923Z,14.33
2018-02-09T12:19:49.514Z,14.80
2018-02-09T12:22:17.009Z,15.87
2018-02-09T12:24:44.872Z,15.40
2018-02-09T12:27:12.407Z,15.20
2018-02-09T12:29:39.982Z,15.90
2018-02-09T12:32:07.769Z,14.47
2018-02-09T12:34:35.275Z,14.87
2018-02-09T12:37:02.784Z,14.70
2018-02-09T12:39:30.629Z,13.80
2018-02-09T12:41:58.130Z,15.87
2018-02-09T12:44:25.633Z,15.30
2018-02-09T12:46:53.509Z,14.53
2018-02-09T12:49:21.033Z,14.67
2018-02-09T12:51:48.629Z,13.67
2018-02-09T12:54:16.190Z,14.73
2018-02-09T12:56:43.729Z,13.10
2018-02-09T12:59:12.307Z,13.57
2018-02-09T13:01:39.798Z,13.57
2018-02-09T13:04:07.296Z,13.07
2018-02-09T13:06:35.102Z,12.63
2018-02-09T13:09:02.609Z,14.47
2018-02-09T13:11:30.140Z,13.90
2018-02-09T13:13:58.142Z,14.20
2018-02-09T13:16:25.728Z,14.30
2018-02-09T13:18:54.038Z,13.50
2018-02-09T13:21:22.000Z,12.27
2018-02-09T13:24:01.136Z,11.67
2018-02-09T13:26:29.010Z,11.20
2018-02-09T13:28:59.234Z,11.60
2018-02-09T13:31:26.755Z,12.10
2018-02-09T13:33:55.289Z,12.97
2018-02-09T13:36:34.702Z,13.03
2018-02-09T13:39:02.546Z,13.37
2018-02-09T13:41:30.027Z,13.60
2018-02-09T13:43:57.520Z,12.23
2018-02-09T13:46:25.465Z,10.97
2018-02-09T13:48:52.978Z,12.03
2018-02-09T13:51:20.481Z,11.77
2018-02-09T13:53:48.307Z,11.77
2018-02-09T13:56:15.802Z,12.20
2018-02-09T13:58:43.302Z,11.47
2018-02-09T14:01:11.204Z,12.57
2018-02-09T14:03:38.867Z,13.03
2018-02-09T14:06:06.372Z,13.23
2018-02-09T14:08:33.971Z,15.37
2018-02-09T14:11:01.854Z,14.43
2018-02-09T14:13:29.359Z,13.67
2018-02-09T14:15:56.960Z,12.33
2018-02-09T14:18:24.840Z,12.13
2018-02-09T14:20:52.337Z,12.80
2018-02-09T14:23:19.944Z,13.07
2018-02-09T14:25:47.598Z,12.83
2018-02-09T14:28:15.269Z,13.10
2018-02-09T14:30:43.164Z,14.07
2018-02-09T14:33:10.655Z,15.10
2018-02-09T14:35:38.172Z,15.77
2018-02-09T14:38:05.702Z,14.23
2018-02-09T14:40:33.963Z,16.70
2018-02-09T14:43:01.856Z,15.60
2018-02-09T14:45:29.394Z,14.60
2018-02-09T14:47:57.803Z,14.80
2018-02-09T14:50:25.849Z,15.37
2018-02-09T14:52:53.523Z,16.00
2018-02-09T14:55:21.175Z,16.13
2018-02-09T14:57:49.040Z,15.17
2018-02-09T15:00:17.202Z,16.33
2018-02-09T15:02:45.479Z,16.90
2018-02-09T15:05:14.087Z,17.37
2018-02-09T15:07:41.734Z,16.10
2018-02-09T15:10:09.252Z,15.90
2018-02-09T15:12:37.175Z,16.57
2018-02-09T15:15:04.710Z,17.37
2018-02-09T15:17:32.407Z,18.37
2018-02-09T15:20:00.360Z,19.17
2018-02-09T15:22:27.850Z,18.73
2018-02-09T15:24:55.349Z,19.83
2018-02-09T15:27:23.951Z,19.57
2018-02-09T15:29:51.447Z,19.47
2018-02-09T15:32:18.942Z,21.67
2018-02-09T15:34:47.551Z,20.77
2018-02-09T15:37:15.209Z,21.47
2018-02-09T15:39:43.476Z,20.83
2018-02-09T15:42:11.348Z,22.07
2018-02-09T15:44:38.877Z,22.87
2018-02-09T15:47:07.874Z,20.63
2018-02-09T15:49:35.687Z,22.50
2018-02-09T15:52:03.268Z,23.00
2018-02-09T15:54:31.531Z,24.60
2018-02-09T15:56:59.518Z,22.03
2018-02-09T15:59:27.214Z,22.67
2018-02-09T16:01:55.630Z,22.73
2018-02-09T16:04:23.470Z,22.90
2018-02-09T16:06:51.136Z,23.30
2018-02-09T16:09:18.638Z,24.83
2018-02-09T16:11:46.431Z,25.47
2018-02-09T16:14:14.614Z,25.70
2018-02-09T16:16:42.113Z,25.67
2018-02-09T16:19:09.982Z,25.90
2018-02-09T16:21:37.472Z,26.40
2018-02-09T16:24:04.976Z,27.97
2018-02-09T16:26:33.511Z,26.97
2018-02-09T16:29:01.031Z,27.63
2018-02-09T16:31:28.534Z,26.50
2018-02-09T16:33:56.044Z,27.10
2018-02-09T16:36:23.545Z,27.43
2018-02-09T16:38:51.356Z,27.17
2018-02-09T16:41:19.046Z,26.10
2018-02-09T16:43:46.572Z,28.60
2018-02-09T16:46:14.131Z,28.27
2018-02-09T16:48:42.405Z,29.43
2018-02-09T16:51:11.034Z,29.13
2018-02-09T16:53:39.430Z,29.20
2018-02-09T16:56:06.962Z,31.33
2018-02-09T16:58:34.825Z,36.13
2018-02-09T17:01:02.352Z,34.40
2018-02-09T17:03:30.636Z,33.97
2018-02-09T17:05:58.607Z,32.37
2018-02-09T17:08:26.127Z,31.53
2018-02-09T17:10:53.649Z,32.20
2018-02-09T17:13:21.452Z,31.27
2018-02-09T17:15:49.853Z,29.83
2018-02-09T17:18:17.397Z,35.17
2018-02-09T17:20:46.033Z,35.23
2018-02-09T17:23:13.538Z,35.60
2018-02-09T17:25:41.860Z,30.80
2018-02-09T17:28:09.877Z,28.90
2018-02-09T17:30:37.404Z,29.00
2018-02-09T17:33:04.923Z,32.53
2018-02-09T17:35:33.519Z,31.87
2018-02-09T17:38:01.103Z,30.80
2018-02-09T17:40:28.650Z,30.60
2018-02-09T17:42:56.445Z,30.33
2018-02-09T17:45:24.786Z,29.77
2018-02-09T17:47:52.293Z,30.87
2018-02-09T17:50:20.119Z,30.30
2018-02-09T17:52:48.419Z,30.57
2018-02-09T17:55:15.939Z,33.50
2018-02-09T17:57:43.743Z,31.23
2018-02-09T18:00:11.370Z,32.00
2018-02-09T18:02:38.891Z,32.13
2018-02-09T18:05:06.822Z,31.10
2018-02-09T18:07:34.296Z,32.57
2018-02-09T18:10:01.816Z,31.43
2018-02-09T18:12:29.661Z,33.60
2018-02-09T18:14:57.208Z,33.43
2018-02-09T18:17:35.180Z,35.63
2018-02-09T18:20:02.686Z,40.03
2018-02-09T18:22:30.237Z,36.93
2018-02-09T18:24:58.055Z,35.97
2018-02-09T18:27:25.791Z,34.63
2018-02-09T18:29:53.331Z,34.73
2018-02-09T18:32:22.334Z,33.57
2018-02-09T18:47:50.970Z,34.07
2018-02-09T18:50:19.389Z,35.83
2018-02-09T18:52:48.354Z,35.30
2018-02-09T18:55:16.171Z,33.43
2018-02-09T18:57:43.706Z,33.97
2018-02-09T19:00:12.109Z,34.37
2018-02-09T19:02:39.945Z,33.80
2018-02-09T19:05:07.465Z,36.47
2018-02-09T19:07:35.008Z,35.80
2018-02-09T19:10:03.596Z,36.70
2018-02-09T19:12:31.914Z,37.30
2018-02-09T19:15:00.230Z,35.07
2018-02-09T19:17:28.101Z,37.77
2018-02-09T19:19:56.432Z,36.90
2018-02-09T19:22:24.124Z,35.57
2018-02-09T19:24:51.979Z,36.83
2018-02-09T19:27:19.555Z,37.60
2018-02-09T19:29:48.601Z,37.10
2018-02-09T19:32:16.403Z,38.00
2018-02-09T19:34:43.967Z,39.10
2018-02-09T19:37:11.532Z,41.23
2018-02-09T19:39:40.911Z,38.33
2018-02-09T19:42:08.454Z,40.50
2018-02-09T19:44:36.058Z,39.63
2018-02-09T19:47:04.013Z,40.70
2018-02-09T19:49:31.673Z,43.27
2018-02-09T19:51:59.261Z,40.20
2018-02-09T19:54:28.020Z,40.37
2018-02-09T19:56:55.561Z,40.20
2018-02-09T19:59:23.124Z,39.40
2018-02-09T20:01:51.121Z,44.70
2018-02-09T20:04:19.434Z,48.87
2018-02-09T20:06:47.069Z,40.63
2018-02-09T20:09:15.772Z,40.83
2018-02-09T20:11:43.403Z,39.57
2018-02-09T20:14:11.555Z,43.73
2018-02-09T20:16:39.547Z,75.27
2018-02-09T20:19:07.345Z,47.07
2018-02-09T20:21:34.935Z,48.83
2018-02-09T20:24:02.940Z,48.33
2018-02-09T20:26:30.501Z,42.10
2018-02-09T20:28:58.231Z,42.13
2018-02-09T20:31:28.188Z,40.80
2018-02-09T20:33:56.558Z,40.80
2018-02-09T20:36:24.255Z,38.30
2018-02-09T20:38:52.337Z,41.23
2018-02-09T20:41:21.723Z,39.37
2018-02-09T20:43:49.324Z,40.80
2018-02-09T20:46:18.203Z,42.10
2018-02-09T20:48:47.398Z,41.17
2018-02-09T20:51:14.960Z,41.53
2018-02-09T20:53:42.948Z,39.97
2018-02-09T20:56:10.481Z,75.33
2018-02-09T20:58:38.082Z,65.93
2018-02-09T21:01:05.984Z,76.60
2018-02-09T21:03:34.308Z,93.13
2018-02-09T21:06:01.859Z,101.27
2018-02-09T21:08:29.779Z,96.10
2018-02-09T21:10:58.118Z,54.33
2018-02-09T21:13:25.657Z,48.77
2018-02-09T21:15:53.572Z,65.30
2018-02-09T21:18:21.125Z,52.27
2018-02-09T21:20:49.448Z,47.30
2018-02-09T21:23:17.343Z,45.70
2018-02-09T21:25:44.935Z,45.73
2018-02-09T21:28:13.356Z,44.73
2018-02-09T21:30:41.215Z,44.50
2018-02-09T21:33:08.744Z,47.63
2018-02-09T21:35:36.281Z,44.43
2018-02-09T21:38:04.308Z,49.03
2018-02-09T21:40:31.853Z,80.70
2018-02-09T21:42:59.399Z,87.73
2018-02-09T21:45:28.021Z,52.10
2018-02-09T21:47:55.688Z,46.97
2018-02-09T21:50:23.202Z,47.63
2018-02-09T21:52:51.798Z,46.43
2018-02-09T21:55:19.321Z,81.83
2018-02-09T21:57:47.125Z,71.90
2018-02-09T22:00:15.045Z,51.67
2018-02-09T22:02:42.569Z,46.57
2018-02-09T22:05:10.202Z,45.90
2018-02-09T22:07:38.176Z,44.60
2018-02-09T22:10:05.750Z,45.60
2018-02-09T22:12:33.344Z,45.70
2018-02-09T22:15:01.155Z,80.43
2018-02-09T22:17:28.721Z,87.47
2018-02-09T22:19:56.293Z,53.57
2018-02-09T22:22:24.132Z,47.50
2018-02-09T22:24:51.639Z,46.77
2018-02-09T22:27:19.140Z,46.33
2018-02-09T22:29:47.764Z,50.17
2018-02-09T22:32:15.273Z,49.97
2018-02-09T22:34:42.784Z,83.60
2018-02-09T22:37:10.643Z,125.40
2018-02-09T22:39:38.303Z,65.67
2018-02-09T22:42:05.810Z,50.07
2018-02-09T22:44:33.621Z,48.63
2018-02-09T22:47:01.123Z,47.80
2018-02-09T22:49:30.143Z,50.00
2018-02-09T22:51:57.984Z,49.10
2018-02-09T22:54:25.499Z,48.57
2018-02-09T22:56:53.130Z,48.53
2018-02-09T22:59:21.008Z,71.17
2018-02-09T23:01:48.527Z,74.17
2018-02-09T23:04:16.036Z,53.33
2018-02-09T23:06:43.876Z,46.50
2018-02-09T23:09:11.371Z,46.07
2018-02-09T23:11:38.906Z,47.97
2018-02-09T23:14:06.871Z,48.43
2018-02-09T23:16:34.395Z,48.60
2018-02-09T23:19:01.889Z,45.50
2018-02-09T23:21:29.850Z,45.60
2018-02-09T23:23:57.394Z,81.47
2018-02-09T23:26:25.677Z,49.27
2018-02-09T23:28:53.504Z,46.53
2018-02-09T23:31:21.012Z,45.03
2018-02-09T23:33:48.589Z,43.97
2018-02-09T23:36:16.539Z,43.90
2018-02-09T23:38:44.054Z,100.83
2018-02-09T23:41:11.554Z,105.70
2018-02-09T23:43:39.428Z,51.33
2018-02-09T23:46:07.082Z,44.37
2018-02-09T23:48:34.591Z,44.93
2018-02-09T23:51:02.394Z,45.73
2018-02-09T23:53:30.657Z,44.87
2018-02-09T23:55:58.949Z,47.83
2018-02-09T23:58:27.531Z,45.43
